createdAt,value
2019-02-18T00:00:45.564Z,19.12
2019-02-18T00:03:14.253Z,20.60
2019-02-18T00:05:42.934Z,20.82
2019-02-18T00:08:11.661Z,19.73
2019-02-18T00:10:40.413Z,20.23
2019-02-18T00:13:09.097Z,21.12
2019-02-18T00:15:37.795Z,19.25
2019-02-18T00:18:06.498Z,19.70
2019-02-18T00:20:35.207Z,19.77
2019-02-18T00:23:03.986Z,18.27
2019-02-18T00:25:32.779Z,18.95
2019-02-18T00:28:01.531Z,18.95
2019-02-18T00:30:30.221Z,17.98
2019-02-18T00:32:58.873Z,19.37
2019-02-18T00:35:27.501Z,20.40
2019-02-18T00:37:56.143Z,19.52
2019-02-18T00:40:24.823Z,19.40
2019-02-18T00:42:53.518Z,19.42
2019-02-18T00:45:22.211Z,19.95
2019-02-18T00:47:50.861Z,19.77
2019-02-18T00:50:19.537Z,17.77
2019-02-18T00:52:48.313Z,18.95
2019-02-18T00:55:17.036Z,20.00
2019-02-18T00:57:45.740Z,18.98
2019-02-18T01:00:14.845Z,21.07
2019-02-18T01:02:43.504Z,19.25
2019-02-18T01:05:12.185Z,19.80
2019-02-18T01:07:40.898Z,19.52
2019-02-18T01:10:09.780Z,19.80
2019-02-18T01:12:38.578Z,20.80
2019-02-18T01:15:08.041Z,19.27
2019-02-18T01:17:36.731Z,19.90
2019-02-18T01:20:05.845Z,19.42
2019-02-18T01:22:34.499Z,20.90
2019-02-18T01:25:03.212Z,19.82
2019-02-18T01:27:31.788Z,20.30
2019-02-18T01:30:00.587Z,17.57
2019-02-18T01:32:29.290Z,21.42
2019-02-18T01:34:57.980Z,21.12
2019-02-18T01:37:26.658Z,21.42
2019-02-18T01:39:55.338Z,19.82
2019-02-18T01:42:23.947Z,19.23
2019-02-18T01:44:52.634Z,19.00
2019-02-18T01:47:21.280Z,20.82
2019-02-18T01:49:50.029Z,20.92
2019-02-18T01:52:18.638Z,19.17
2019-02-18T01:54:47.359Z,20.12
2019-02-18T01:57:15.936Z,18.37
2019-02-18T01:59:44.681Z,21.55
2019-02-18T02:02:13.320Z,19.45
2019-02-18T02:04:41.988Z,19.35
2019-02-18T02:07:10.746Z,19.32
2019-02-18T02:09:39.406Z,20.82
2019-02-18T02:12:08.093Z,20.77
2019-02-18T02:14:36.783Z,21.57
2019-02-18T02:17:05.495Z,22.02
2019-02-18T02:19:34.161Z,20.62
2019-02-18T02:22:02.934Z,19.45
2019-02-18T02:24:31.717Z,20.77
2019-02-18T02:27:00.494Z,21.93
2019-02-18T02:29:29.161Z,20.43
2019-02-18T02:31:57.743Z,19.52
2019-02-18T02:34:26.332Z,20.62
2019-02-18T02:36:55.120Z,21.57
2019-02-18T02:39:23.882Z,24.70
2019-02-18T02:41:52.596Z,22.65
2019-02-18T02:44:21.302Z,21.00
2019-02-18T02:46:50.090Z,22.15
2019-02-18T02:49:18.779Z,22.40
2019-02-18T02:51:47.464Z,21.75
2019-02-18T02:54:16.140Z,21.15
2019-02-18T02:56:44.965Z,20.35
2019-02-18T02:59:13.750Z,20.60
2019-02-18T03:01:42.426Z,22.27
2019-02-18T03:04:11.103Z,22.90
2019-02-18T03:06:39.844Z,21.68
2019-02-18T03:09:08.941Z,22.07
2019-02-18T03:11:37.666Z,22.58
2019-02-18T03:14:06.385Z,23.45
2019-02-18T03:16:35.132Z,20.12
2019-02-18T03:19:03.806Z,22.52
2019-02-18T03:21:32.623Z,21.37
2019-02-18T03:24:01.323Z,21.52
2019-02-18T03:26:30.003Z,20.48
2019-02-18T03:29:17.485Z,19.85
2019-02-18T03:31:46.147Z,19.90
2019-02-18T03:34:23.762Z,20.05
2019-02-18T03:36:52.474Z,19.02
2019-02-18T03:39:21.149Z,19.90
2019-02-18T03:41:49.820Z,18.35
2019-02-18T03:44:18.525Z,19.15
2019-02-18T03:46:47.269Z,20.90
2019-02-18T03:49:16.027Z,20.55
2019-02-18T03:51:44.692Z,21.37
2019-02-18T03:54:13.397Z,18.82
2019-02-18T03:56:42.100Z,22.37
2019-02-18T03:59:10.727Z,21.82
2019-02-18T04:01:39.627Z,21.80
2019-02-18T04:04:08.285Z,20.55
2019-02-18T04:06:36.880Z,20.92
2019-02-18T04:09:05.997Z,21.42
2019-02-18T04:11:34.657Z,20.80
2019-02-18T04:14:03.422Z,20.92
2019-02-18T04:16:32.116Z,21.87
2019-02-18T04:19:00.716Z,20.85
2019-02-18T04:21:29.431Z,18.45
2019-02-18T04:23:58.175Z,17.55
2019-02-18T04:26:26.889Z,19.17
2019-02-18T04:28:55.580Z,18.23
2019-02-18T04:31:24.287Z,18.98
2019-02-18T04:33:53.099Z,17.55
2019-02-18T04:36:21.914Z,19.20
2019-02-18T04:38:53.986Z,19.67
2019-02-18T04:41:21.142Z,17.60
2019-02-18T04:43:49.897Z,18.23
2019-02-18T04:46:18.650Z,19.65
2019-02-18T04:48:47.334Z,18.92
2019-02-18T04:51:16.062Z,18.57
2019-02-18T04:53:45.053Z,18.27
2019-02-18T04:56:13.776Z,16.93
2019-02-18T04:58:42.439Z,18.00
2019-02-18T05:01:11.056Z,18.52
2019-02-18T05:03:39.763Z,17.48
2019-02-18T05:06:08.423Z,17.87
2019-02-18T05:08:37.126Z,18.67
2019-02-18T05:11:05.806Z,17.60
2019-02-18T05:13:34.546Z,17.90
2019-02-18T05:16:03.291Z,17.45
2019-02-18T05:18:32.016Z,17.05
2019-02-18T05:21:00.776Z,16.20
2019-02-18T05:23:29.422Z,17.65
2019-02-18T05:25:58.121Z,16.80
2019-02-18T05:28:26.692Z,18.37
2019-02-18T05:30:55.348Z,18.65
2019-02-18T05:33:23.964Z,17.95
2019-02-18T05:35:55.732Z,17.77
2019-02-18T05:38:25.565Z,16.90
2019-02-18T05:40:54.484Z,18.35
2019-02-18T05:43:23.499Z,18.15
2019-02-18T05:45:52.332Z,17.75
2019-02-18T05:48:21.071Z,18.45
2019-02-18T05:50:52.080Z,20.12
2019-02-18T05:53:21.003Z,18.75
2019-02-18T05:55:49.789Z,19.70
2019-02-18T05:58:18.533Z,20.27
2019-02-18T06:00:48.331Z,18.92
2019-02-18T06:03:17.165Z,19.25
2019-02-18T06:05:48.944Z,19.98
2019-02-18T06:08:17.896Z,19.23
2019-02-18T06:10:46.643Z,20.27
2019-02-18T06:13:15.426Z,21.25
2019-02-18T06:15:46.144Z,18.57
2019-02-18T06:35:04.324Z,20.52
2019-02-18T06:37:33.185Z,22.73
2019-02-18T06:40:02.057Z,22.60
2019-02-18T06:42:30.907Z,21.60
2019-02-18T06:45:33.682Z,23.62
2019-02-18T06:48:06.994Z,21.75
2019-02-18T06:50:35.731Z,20.37
2019-02-18T06:53:04.454Z,20.90
2019-02-18T06:55:33.227Z,19.70
2019-02-18T06:58:23.914Z,23.25
2019-02-18T07:00:57.725Z,21.65
2019-02-18T07:03:57.811Z,21.57
2019-02-18T07:07:03.535Z,21.65
2019-02-18T07:09:54.808Z,21.25
2019-02-18T07:12:27.084Z,22.42
2019-02-18T07:14:55.802Z,23.35
2019-02-18T07:17:24.638Z,21.23
2019-02-18T07:19:55.931Z,22.52
2019-02-18T07:22:24.767Z,23.70
2019-02-18T07:24:53.493Z,23.62
2019-02-18T07:27:22.349Z,24.02
2019-02-18T07:29:53.237Z,23.45
2019-02-18T07:35:33.774Z,23.87
2019-02-18T07:38:02.561Z,23.60
2019-02-18T07:40:31.310Z,23.70
2019-02-18T07:43:39.584Z,23.07
2019-02-18T07:46:08.410Z,20.45
2019-02-18T07:48:37.269Z,20.68
2019-02-18T08:22:57.535Z,15.68
2019-02-18T08:25:26.298Z,15.43
2019-02-18T08:27:54.942Z,15.15
2019-02-18T08:30:23.773Z,14.60
2019-02-18T08:32:52.453Z,15.80
2019-02-18T08:35:21.083Z,15.80
2019-02-18T08:37:49.803Z,15.20
2019-02-18T08:40:22.417Z,16.30
2019-02-18T08:42:48.848Z,15.48
2019-02-18T08:45:17.511Z,14.00
2019-02-18T08:47:46.225Z,15.75
2019-02-18T08:50:14.929Z,13.68
2019-02-18T08:52:43.642Z,15.20
2019-02-18T08:55:12.595Z,15.90
2019-02-18T08:57:41.294Z,15.65
2019-02-18T09:00:11.515Z,15.50
2019-02-18T09:02:40.211Z,15.00
2019-02-18T09:05:09.020Z,15.85
2019-02-18T09:07:37.741Z,16.10
2019-02-18T09:10:06.667Z,15.78
2019-02-18T09:12:35.343Z,15.20
2019-02-18T09:15:04.062Z,15.03
2019-02-18T09:17:32.748Z,14.38
2019-02-18T09:20:01.449Z,14.75
2019-02-18T09:22:47.646Z,15.23
2019-02-18T09:25:22.252Z,14.37
2019-02-18T09:27:51.762Z,14.75
2019-02-18T09:30:28.177Z,14.63
2019-02-18T09:32:56.876Z,14.17
2019-02-18T09:35:25.611Z,14.37
2019-02-18T09:37:54.205Z,15.43
2019-02-18T09:40:22.847Z,15.73
2019-02-18T09:42:51.478Z,15.60
2019-02-18T09:45:20.083Z,14.47
2019-02-18T09:47:48.713Z,13.73
2019-02-18T09:50:17.487Z,14.80
2019-02-18T09:52:46.199Z,15.80
2019-02-18T09:55:14.934Z,13.50
2019-02-18T09:57:43.606Z,14.23
2019-02-18T10:00:12.240Z,12.90
2019-02-18T10:02:40.950Z,12.20
2019-02-18T10:05:09.948Z,11.97
2019-02-18T10:07:38.662Z,10.53
2019-02-18T10:10:07.423Z,10.50
2019-02-18T10:12:36.113Z,9.60
2019-02-18T10:15:04.880Z,8.93
2019-02-18T10:17:33.563Z,9.50
2019-02-18T10:20:02.225Z,9.77
2019-02-18T10:22:30.913Z,10.63
2019-02-18T10:24:59.505Z,11.07
2019-02-18T10:27:28.180Z,10.53
2019-02-18T10:29:57.825Z,10.27
2019-02-18T10:32:26.589Z,11.10
2019-02-18T10:34:55.332Z,11.07
2019-02-18T10:37:24.113Z,11.60
2019-02-18T10:39:52.823Z,11.77
2019-02-18T10:42:21.497Z,11.07
2019-02-18T10:44:50.155Z,11.37
2019-02-18T10:47:19.125Z,11.10
2019-02-18T10:49:47.947Z,10.83
2019-02-18T10:52:16.606Z,11.30
2019-02-18T10:54:45.446Z,10.97
2019-02-18T10:57:14.193Z,9.97
2019-02-18T10:59:42.910Z,10.70
2019-02-18T11:02:11.950Z,10.40
2019-02-18T11:04:40.689Z,10.33
2019-02-18T11:07:09.377Z,9.97
2019-02-18T11:09:38.109Z,10.47
2019-02-18T11:12:06.702Z,9.90
2019-02-18T11:14:35.400Z,11.17
2019-02-18T11:17:04.096Z,11.23
2019-02-18T11:19:32.782Z,11.60
2019-02-18T11:22:01.455Z,11.87
2019-02-18T11:24:30.046Z,11.87
2019-02-18T11:26:58.831Z,13.13
2019-02-18T11:29:28.624Z,10.83
2019-02-18T11:31:57.427Z,11.83
2019-02-18T11:34:26.150Z,11.70
2019-02-18T11:36:54.879Z,10.70
2019-02-18T11:39:23.686Z,11.97
2019-02-18T11:41:52.422Z,11.40
2019-02-18T11:44:21.158Z,11.87
2019-02-18T11:46:49.833Z,11.97
2019-02-18T11:49:18.582Z,11.57
2019-02-18T11:51:47.223Z,11.80
2019-02-18T11:54:16.243Z,11.90
2019-02-18T11:56:45.059Z,11.87
2019-02-18T11:59:23.726Z,11.07
2019-02-18T12:01:44.073Z,11.50
2019-02-18T12:04:12.817Z,11.60
2019-02-18T12:06:41.591Z,11.57
2019-02-18T12:09:11.569Z,11.37
2019-02-18T12:11:40.321Z,12.23
2019-02-18T12:14:09.076Z,11.50
2019-02-18T12:16:37.813Z,10.80
2019-02-18T12:19:06.582Z,10.83
2019-02-18T12:21:35.288Z,10.90
2019-02-18T12:24:04.024Z,10.30
2019-02-18T12:26:33.087Z,10.77
2019-02-18T12:29:01.868Z,10.60
2019-02-18T12:31:30.636Z,11.03
2019-02-18T12:33:59.414Z,10.67
2019-02-18T12:36:28.106Z,10.07
2019-02-18T12:38:56.880Z,11.27
2019-02-18T12:41:25.906Z,11.20
2019-02-18T12:43:54.557Z,10.37
2019-02-18T12:46:23.268Z,11.57
2019-02-18T12:48:52.005Z,11.80
2019-02-18T12:51:20.746Z,11.00
2019-02-18T12:53:49.505Z,11.50
2019-02-18T12:56:18.317Z,9.80
2019-02-18T12:58:54.439Z,10.37
2019-02-18T13:01:17.619Z,10.80
2019-02-18T13:03:46.276Z,11.10
2019-02-18T13:06:15.024Z,10.70
2019-02-18T13:08:43.761Z,10.63
2019-02-18T13:11:12.531Z,11.70
2019-02-18T13:13:41.187Z,10.47
2019-02-18T13:16:10.281Z,10.47
2019-02-18T13:18:39.071Z,10.70
2019-02-18T13:21:07.800Z,10.80
2019-02-18T13:23:36.568Z,10.37
2019-02-18T13:26:05.257Z,11.27
2019-02-18T13:28:33.894Z,10.17
2019-02-18T13:31:02.687Z,11.33
2019-02-18T13:33:31.731Z,10.87
2019-02-18T13:36:00.510Z,9.93
2019-02-18T13:38:29.317Z,10.00
2019-02-18T13:40:58.146Z,10.33
2019-02-18T13:43:26.908Z,10.77
2019-02-18T13:45:55.634Z,10.67
2019-02-18T13:48:24.312Z,10.73
2019-02-18T13:50:53.070Z,10.30
2019-02-18T13:53:21.732Z,9.77
2019-02-18T13:55:50.455Z,9.33
2019-02-18T13:58:19.296Z,10.23
2019-02-18T14:00:48.129Z,9.73
2019-02-18T14:03:16.829Z,9.60
2019-02-18T14:05:45.776Z,9.43
2019-02-18T14:08:14.534Z,9.87
2019-02-18T14:10:43.246Z,8.70
2019-02-18T14:13:12.020Z,9.47
2019-02-18T14:15:40.837Z,8.70
2019-02-18T14:18:09.700Z,8.90
2019-02-18T14:20:38.810Z,9.43
2019-02-18T14:23:07.711Z,9.03
2019-02-18T14:25:36.437Z,9.03
2019-02-18T14:28:05.192Z,8.37
2019-02-18T14:30:34.030Z,8.70
2019-02-18T14:33:02.757Z,8.23
2019-02-18T14:35:31.833Z,7.50
2019-02-18T14:38:00.623Z,7.93
2019-02-18T14:40:29.479Z,7.60
2019-02-18T14:42:58.168Z,7.93
2019-02-18T14:45:27.002Z,7.33
2019-02-18T14:47:55.762Z,7.13
2019-02-18T14:50:24.509Z,6.43
2019-02-18T14:52:53.275Z,6.23
2019-02-18T14:55:21.948Z,6.40
2019-02-18T14:57:50.654Z,6.60
2019-02-18T15:00:23.580Z,6.30
2019-02-18T15:02:53.097Z,6.40
2019-02-18T15:05:22.133Z,6.10
2019-02-18T15:07:50.858Z,6.20
2019-02-18T15:10:19.651Z,5.70
2019-02-18T15:12:48.424Z,6.17
2019-02-18T15:15:17.194Z,6.13
2019-02-18T15:17:45.918Z,5.60
2019-02-18T15:20:14.679Z,6.80
2019-02-18T15:22:43.426Z,6.57
2019-02-18T15:25:12.240Z,6.33
2019-02-18T15:27:41.034Z,6.33
2019-02-18T15:30:11.246Z,6.90
2019-02-18T15:32:40.051Z,7.77
2019-02-18T15:35:08.837Z,8.43
2019-02-18T15:37:37.506Z,7.67
2019-02-18T15:40:06.636Z,7.60
2019-02-18T15:42:41.916Z,7.23
2019-02-18T15:45:05.746Z,5.87
2019-02-18T15:47:34.502Z,5.80
2019-02-18T15:50:03.368Z,6.20
2019-02-18T15:52:32.443Z,6.60
2019-02-18T15:55:01.192Z,6.53
2019-02-18T15:57:30.022Z,6.07
2019-02-18T15:59:58.758Z,6.63
2019-02-18T16:02:27.580Z,5.90
2019-02-18T16:04:56.419Z,5.90
2019-02-18T16:07:25.372Z,5.73
2019-02-18T16:09:54.153Z,5.90
2019-02-18T16:12:22.809Z,6.33
2019-02-18T16:14:51.470Z,6.80
2019-02-18T16:17:20.259Z,6.70
2019-02-18T16:19:49.008Z,6.63
2019-02-18T16:22:18.116Z,6.87
2019-02-18T16:24:46.916Z,6.73
2019-02-18T16:27:15.627Z,7.17
2019-02-18T16:29:44.487Z,7.10
2019-02-18T16:32:13.213Z,7.93
2019-02-18T16:34:41.922Z,8.53
2019-02-18T16:37:11.521Z,8.40
2019-02-18T16:39:40.257Z,9.27
2019-02-18T16:42:09.410Z,8.13
2019-02-18T16:44:38.213Z,8.30
2019-02-18T16:47:06.942Z,9.10
2019-02-18T16:49:36.007Z,8.53
2019-02-18T16:52:05.170Z,9.50
2019-02-18T16:54:33.916Z,8.27
2019-02-18T16:57:02.554Z,8.97
2019-02-18T16:59:31.337Z,9.30
2019-02-18T17:02:00.035Z,9.53
2019-02-18T17:04:28.763Z,8.20
2019-02-18T17:06:57.548Z,9.87
2019-02-18T17:09:26.289Z,11.00
2019-02-18T17:12:14.254Z,10.33
2019-02-18T17:14:43.026Z,8.87
2019-02-18T17:17:11.769Z,9.03
2019-02-18T17:19:40.938Z,10.10
2019-02-18T17:22:09.646Z,9.67
2019-02-18T17:24:38.389Z,9.60
2019-02-18T17:27:07.149Z,9.60
2019-02-18T17:29:35.834Z,9.10
2019-02-18T17:32:04.605Z,9.77
2019-02-18T17:34:33.373Z,9.90
2019-02-18T17:37:02.139Z,10.20
2019-02-18T17:39:30.907Z,10.13
2019-02-18T17:41:59.681Z,10.87
2019-02-18T17:44:28.441Z,11.63
2019-02-18T17:46:57.457Z,10.90
2019-02-18T17:49:26.166Z,10.70
2019-02-18T17:51:55.220Z,11.30
2019-02-18T17:54:23.909Z,11.47
2019-02-18T17:56:52.659Z,12.40
2019-02-18T17:59:21.391Z,13.27
2019-02-18T18:01:50.078Z,12.20
2019-02-18T18:04:18.848Z,12.73
2019-02-18T18:06:47.508Z,12.60
2019-02-18T18:09:17.101Z,11.20
2019-02-18T18:11:45.928Z,12.60
2019-02-18T18:14:14.657Z,10.93
2019-02-18T18:16:43.354Z,12.17
2019-02-18T18:19:12.092Z,13.03
2019-02-18T18:21:40.769Z,11.27
2019-02-18T18:24:09.430Z,11.60
2019-02-18T18:26:38.145Z,12.10
2019-02-18T18:29:06.960Z,11.57
2019-02-18T18:31:35.747Z,10.97
2019-02-18T18:34:04.472Z,9.93
2019-02-18T18:36:33.144Z,10.63
2019-02-18T18:39:02.259Z,10.17
2019-02-18T18:41:31.255Z,9.83
2019-02-18T18:44:00.141Z,10.20
2019-02-18T18:46:28.923Z,10.23
2019-02-18T18:48:57.562Z,10.87
2019-02-18T18:51:26.218Z,11.27
2019-02-18T18:53:55.226Z,11.43
2019-02-18T18:56:23.977Z,11.17
2019-02-18T18:58:52.745Z,12.37
2019-02-18T19:01:21.544Z,13.07
2019-02-18T19:03:50.266Z,13.40
2019-02-18T19:06:18.907Z,13.17
2019-02-18T19:08:50.887Z,13.20
2019-02-18T19:11:19.340Z,13.13
2019-02-18T19:13:48.105Z,13.27
2019-02-18T19:16:16.817Z,13.30
2019-02-18T19:18:45.608Z,12.33
2019-02-18T19:21:14.367Z,12.03
2019-02-18T19:23:43.123Z,12.13
2019-02-18T19:26:11.947Z,11.97
2019-02-18T19:28:40.635Z,10.50
2019-02-18T19:31:09.424Z,11.90
2019-02-18T19:33:38.552Z,11.05
2019-02-18T19:36:07.290Z,12.00
2019-02-18T19:38:35.987Z,11.30
2019-02-18T19:41:04.749Z,10.63
2019-02-18T19:43:33.459Z,11.20
2019-02-18T19:46:02.220Z,11.03
2019-02-18T19:48:30.907Z,11.38
2019-02-18T19:50:59.574Z,12.33
2019-02-18T19:53:28.453Z,12.10
2019-02-18T19:55:57.172Z,11.43
2019-02-18T19:58:25.916Z,11.27
2019-02-18T20:00:54.668Z,12.80
2019-02-18T20:03:23.494Z,11.43
2019-02-18T20:05:52.264Z,11.60
2019-02-18T20:08:21.163Z,11.73
2019-02-18T20:10:49.803Z,11.45
2019-02-18T20:13:18.490Z,12.70
2019-02-18T20:15:47.278Z,11.95
2019-02-18T20:18:15.994Z,12.85
2019-02-18T20:20:44.727Z,11.78
2019-02-18T20:23:13.738Z,12.53
2019-02-18T20:25:42.498Z,12.85
2019-02-18T20:28:11.253Z,11.88
2019-02-18T20:30:40.099Z,10.80
2019-02-18T20:33:08.825Z,11.53
2019-02-18T20:35:37.561Z,12.30
2019-02-18T20:38:06.525Z,11.97
2019-02-18T20:40:35.202Z,12.88
2019-02-18T20:43:03.902Z,11.73
2019-02-18T20:45:32.623Z,11.80
2019-02-18T20:48:01.440Z,12.95
2019-02-18T20:50:30.202Z,12.15
2019-02-18T20:52:59.334Z,11.83
2019-02-18T20:55:28.120Z,10.80
2019-02-18T20:57:56.944Z,12.20
2019-02-18T21:00:25.766Z,13.35
2019-02-18T21:02:54.504Z,13.22
2019-02-18T21:05:23.276Z,13.60
2019-02-18T21:07:52.260Z,14.78
2019-02-18T21:10:20.948Z,15.20
2019-02-18T21:12:49.722Z,15.78
2019-02-18T21:15:18.510Z,15.08
2019-02-18T21:17:47.308Z,15.68
2019-02-18T21:20:16.040Z,16.00
2019-02-18T21:22:44.782Z,16.42
2019-02-18T21:25:13.576Z,15.98
2019-02-18T21:27:42.279Z,15.85
2019-02-18T21:30:11.319Z,15.30
2019-02-18T21:32:40.105Z,16.25
2019-02-18T21:35:08.800Z,15.58
2019-02-18T21:37:37.530Z,16.02
2019-02-18T21:40:09.072Z,16.65
2019-02-18T21:42:37.858Z,15.32
2019-02-18T21:45:06.660Z,15.98
2019-02-18T21:47:35.438Z,16.25
2019-02-18T21:50:04.240Z,15.48
2019-02-18T21:52:32.940Z,18.23
2019-02-18T21:55:01.542Z,18.07
2019-02-18T21:57:30.371Z,17.37
2019-02-18T21:59:59.117Z,15.75
2019-02-18T22:02:27.864Z,16.40
2019-02-18T22:04:56.653Z,16.90
2019-02-18T22:07:25.308Z,16.73
2019-02-18T22:09:54.293Z,15.88
2019-02-18T22:12:22.994Z,17.27
2019-02-18T22:14:51.807Z,17.77
2019-02-18T22:17:20.570Z,17.23
2019-02-18T22:19:49.266Z,17.50
2019-02-18T22:22:17.995Z,16.35
2019-02-18T22:24:46.687Z,17.17
2019-02-18T22:27:15.371Z,17.85
2019-02-18T22:29:44.048Z,16.37
2019-02-18T22:32:12.840Z,15.50
2019-02-18T22:34:41.703Z,16.50
2019-02-18T22:37:10.424Z,17.05
2019-02-18T22:39:39.139Z,16.00
2019-02-18T22:42:07.956Z,17.65
2019-02-18T22:44:41.918Z,16.95
2019-02-18T22:47:07.936Z,15.72
2019-02-18T22:49:36.688Z,17.17
2019-02-18T22:52:05.404Z,16.07
2019-02-18T22:54:34.163Z,16.10
2019-02-18T22:57:02.851Z,17.25
2019-02-18T22:59:31.741Z,18.32
2019-02-18T23:02:00.460Z,17.32
2019-02-18T23:04:29.140Z,16.57
2019-02-18T23:06:57.906Z,16.32
2019-02-18T23:09:26.608Z,17.75
2019-02-18T23:11:55.240Z,18.37
2019-02-18T23:14:23.907Z,19.27
2019-02-18T23:16:52.570Z,19.20
2019-02-18T23:19:21.184Z,18.65
2019-02-18T23:21:49.892Z,19.85
2019-02-18T23:24:18.495Z,20.20
2019-02-18T23:26:47.103Z,20.15
2019-02-18T23:29:15.789Z,19.92
2019-02-18T23:31:44.686Z,20.48
2019-02-18T23:34:13.375Z,17.70
2019-02-18T23:36:42.064Z,18.27
2019-02-18T23:39:10.856Z,19.17
2019-02-18T23:41:39.622Z,18.45
2019-02-18T23:44:08.192Z,16.85
2019-02-18T23:46:36.916Z,17.65
2019-02-18T23:49:05.938Z,19.42
2019-02-18T23:51:34.655Z,17.57
2019-02-18T23:54:03.288Z,17.12
2019-02-18T23:56:31.953Z,18.90
2019-02-18T23:59:00.699Z,17.90
